United Spirit — ELYB2 — position and weather

sailwx.info

Track history (hours):
 
Tides and Currents Weather Stations Pressure Air Temp Water Temp Dewpoint Dewpoint Depression Visibility Wind Speed Wind Dir Waves Ship Positions

United Spirit

Last reported at 2014-Aug-20 05:32 UTC. Time now 2014-Sep-01 21:29 UTC.
Position S 37°20' E 150°14'.
Warning: this ship's position is 12 days out of date.

Type: Cargo ship. MMSI: 636011280.

Date/timePositionNaut miles runAvg speedWind from/ knotsBaromVisibWave heightAir tempDewpointWater temp
2014-Aug-20 05:32S 37°20' E 150°14'1717.5
2014-Aug-20 04:33S 37°35' E 150°04'1817.3
2014-Aug-20 03:31S 37°47' E 149°46'13416.5
2014-Aug-19 19:25S 39°01' E 147°24'1416.3
2014-Aug-19 18:33S 39°06' E 147°07'1616.3
2014-Aug-19 17:33S 39°13' E 146°48'1616.5
2014-Aug-19 16:33S 39°17' E 146°27'1616.4
2014-Aug-19 15:33S 39°13' E 146°07'1717.2
2014-Aug-19 14:33S 39°04' E 145°48'4 0.1
2014-Aug-18 11:06S 39°00' E 145°46'917.6
2014-Aug-18 10:33S 39°05' E 145°57'1717.0
2014-Aug-18 09:33S 39°12' E 146°17'1716.5
2014-Aug-18 08:33S 39°07' E 146°38'1717.0
2014-Aug-18 07:33S 39°02' E 146°58'1717.4
2014-Aug-18 06:33S 38°57' E 147°20'420 8.9
2014-Aug-16 07:33S 33°10' E 152°12'1717.4
2014-Aug-16 06:33S 32°54' E 152°22'1817.9
2014-Aug-16 05:34S 32°39' E 152°33'27717.3
2014-Aug-15 13:33S 28°09' E 153°44'1717.3
2014-Aug-15 12:33S 27°51' E 153°43'1716.9
2014-Aug-15 11:33S 27°35' E 153°42'1716.9
2014-Aug-15 10:34S 27°18' E 153°43'1615.8
2014-Aug-15 09:34S 27°04' E 153°35'1515.2
2014-Aug-15 08:34S 26°51' E 153°25'1514.6
2014-Aug-15 07:33S 26°43' E 153°11'1414.3
2014-Aug-15 06:33S 26°57' E 153°13'1514.9
2014-Aug-15 05:33S 27°12' E 153°17'1312.8
2014-Aug-15 04:33S 27°23' E 153°10'0 0.1
2014-Aug-15 03:32S 27°23' E 153°10'0 0.1
2014-Aug-15 02:32S 27°23' E 153°10'0 0.0
2014-Aug-15 01:32S 27°23' E 153°10'0 0.1
2014-Aug-15 00:32S 27°23' E 153°10'0 0.0
2014-Aug-14 23:32S 27°23' E 153°10'0 0.0
2014-Aug-14 22:32S 27°23' E 153°10'0 0.1
2014-Aug-14 21:32S 27°23' E 153°10'0 0.1
2014-Aug-14 20:32S 27°23' E 153°10'0 0.0
2014-Aug-14 19:32S 27°23' E 153°10'0 0.0
2014-Aug-14 18:32S 27°23' E 153°10'0 0.0
2014-Aug-14 17:32S 27°23' E 153°10'0 0.1
2014-Aug-14 16:32S 27°23' E 153°10'0 0.1
2014-Aug-14 15:32S 27°23' E 153°10'0 0.1
2014-Aug-14 14:32S 27°23' E 153°10'0 0.0
2014-Aug-14 13:32S 27°23' E 153°10'0 0.0
2014-Aug-14 12:32S 27°23' E 153°10'0 0.1
2014-Aug-14 11:32S 27°23' E 153°10'1 0.7
2014-Aug-14 10:33S 27°22' E 153°10'1010.4
2014-Aug-14 09:33S 27°15' E 153°18'1413.8
2014-Aug-14 08:33S 27°01' E 153°15'1413.9
2014-Aug-14 07:33S 26°48' E 153°10'8 7.6
2014-Aug-14 06:33S 26°41' E 153°14'9 9.0
2014-Aug-14 05:33S 26°36' E 153°22'  
Track history (hours):
 
Tides and Currents Weather Stations Pressure Air Temp Water Temp Dewpoint Dewpoint Depression Visibility Wind Speed Wind Dir Waves Ship Positions

United Spirit

Last reported at 2014-Aug-20 05:32 UTC. Time now 2014-Sep-01 21:29 UTC.
Position S 37°20' E 150°14'.
Warning: this ship's position is 12 days out of date.

Type: Cargo ship. MMSI: 636011280.

Date/timePositionNaut miles runAvg speedWind from/ knotsBaromVisibWave heightAir tempDewpointWater temp
2014-Aug-20 05:32S 37°20' E 150°14'1717.5
2014-Aug-20 04:33S 37°35' E 150°04'1817.3
2014-Aug-20 03:31S 37°47' E 149°46'13416.5
2014-Aug-19 19:25S 39°01' E 147°24'1416.3
2014-Aug-19 18:33S 39°06' E 147°07'1616.3
2014-Aug-19 17:33S 39°13' E 146°48'1616.5
2014-Aug-19 16:33S 39°17' E 146°27'1616.4
2014-Aug-19 15:33S 39°13' E 146°07'1717.2
2014-Aug-19 14:33S 39°04' E 145°48'4 0.1
2014-Aug-18 11:06S 39°00' E 145°46'917.6
2014-Aug-18 10:33S 39°05' E 145°57'1717.0
2014-Aug-18 09:33S 39°12' E 146°17'1716.5
2014-Aug-18 08:33S 39°07' E 146°38'1717.0
2014-Aug-18 07:33S 39°02' E 146°58'1717.4
2014-Aug-18 06:33S 38°57' E 147°20'420 8.9
2014-Aug-16 07:33S 33°10' E 152°12'1717.4
2014-Aug-16 06:33S 32°54' E 152°22'1817.9
2014-Aug-16 05:34S 32°39' E 152°33'27717.3
2014-Aug-15 13:33S 28°09' E 153°44'1717.3
2014-Aug-15 12:33S 27°51' E 153°43'1716.9
2014-Aug-15 11:33S 27°35' E 153°42'1716.9
2014-Aug-15 10:34S 27°18' E 153°43'1615.8
2014-Aug-15 09:34S 27°04' E 153°35'1515.2
2014-Aug-15 08:34S 26°51' E 153°25'1514.6
2014-Aug-15 07:33S 26°43' E 153°11'1414.3
2014-Aug-15 06:33S 26°57' E 153°13'1514.9
2014-Aug-15 05:33S 27°12' E 153°17'1312.8
2014-Aug-15 04:33S 27°23' E 153°10'0 0.1
2014-Aug-15 03:32S 27°23' E 153°10'0 0.1
2014-Aug-15 02:32S 27°23' E 153°10'0 0.0
2014-Aug-15 01:32S 27°23' E 153°10'0 0.1
2014-Aug-15 00:32S 27°23' E 153°10'0 0.0
2014-Aug-14 23:32S 27°23' E 153°10'0 0.0
2014-Aug-14 22:32S 27°23' E 153°10'0 0.1
2014-Aug-14 21:32S 27°23' E 153°10'0 0.1
2014-Aug-14 20:32S 27°23' E 153°10'0 0.0
2014-Aug-14 19:32S 27°23' E 153°10'0 0.0
2014-Aug-14 18:32S 27°23' E 153°10'0 0.0
2014-Aug-14 17:32S 27°23' E 153°10'0 0.1
2014-Aug-14 16:32S 27°23' E 153°10'0 0.1
2014-Aug-14 15:32S 27°23' E 153°10'0 0.1
2014-Aug-14 14:32S 27°23' E 153°10'0 0.0
2014-Aug-14 13:32S 27°23' E 153°10'0 0.0
2014-Aug-14 12:32S 27°23' E 153°10'0 0.1
2014-Aug-14 11:32S 27°23' E 153°10'1 0.7
2014-Aug-14 10:33S 27°22' E 153°10'1010.4
2014-Aug-14 09:33S 27°15' E 153°18'1413.8
2014-Aug-14 08:33S 27°01' E 153°15'1413.9
2014-Aug-14 07:33S 26°48' E 153°10'8 7.6
2014-Aug-14 06:33S 26°41' E 153°14'9 9.0
2014-Aug-14 05:33S 26°36' E 153°22'  

Dump ship's entire track history